Latest Weather Observations for Giles*

IDD60801

Issued at 5:01 pm CST Sunday 5 July 2015 (issued every 30 minutes, with the page automatically refreshed every 10 minutes)

About weather observations | Map of weather stations | Latest weather observations for NT | Other Formats
Station Details ID: 013017 Name: GILES METEOROLOGICAL OFFICE Lat: -25.03 Lon: 128.30 Height: 598.0 m
Data from the previous 72 hours. | See also: Recent months at Giles*

* Giles observations are collected in the South Australia time zone, which includes daylight saving in the summer period. Therefore, Rain since 9am value is with respect to South Australia local time.

Date/Time
CST
Temp
°C
App
Temp
°C
Dew
Point
Rel
Hum
%
Delta-T
°C
Wind Press
QNH
hPa
Press
MSL
hPa
Rain
since 9 am
mm
Dir
 
Spd
km/h
Gust
km/h
Spd
kts
Gust
kts
05/04:30pm 21.7 18.5 -0.7 22 10.2 WNW 6 11 3 6 1020.0 1019.3 0.0
05/04:00pm 21.4 17.8 -2.1 20 10.4 E 7 13 4 7 1020.1 1019.4 0.0
05/03:00pm 21.4 17.8 -2.2 20 10.4 WNW 7 17 4 9 1020.4 1019.7 0.0
05/02:00pm 20.2 16.7 -3.2 20 10.0 E 6 9 3 5 1021.3 1020.6 0.0
05/01:30pm 20.1 15.7 -2.5 21 9.8 NNE 11 19 6 10 1021.9 1021.2 0.0
05/01:00pm 20.7 15.8 -3.8 19 10.4 NNW 13 24 7 13 1022.4 1021.7 0.0
05/12:30pm 19.8 14.8 -4.1 19 10.0 NNW 13 20 7 11 1022.9 1022.2 0.0
05/12:00pm 19.5 14.5 -3.9 20 9.8 NNW 13 17 7 9 1023.2 1022.5 0.0
05/11:30am 18.3 12.9 -4.9 20 9.4 N 15 19 8 10 1023.6 1022.9 0.0
05/11:00am 17.8 12.4 -4.2 22 9.0 NNW 15 20 8 11 1023.7 1023.0 0.0
05/10:30am 17.6 13.5 -2.9 24 8.6 N 9 13 5 7 1023.7 1023.0 0.0
05/10:00am 16.7 13.1 -1.9 28 7.9 NNW 7 9 4 5 1023.6 1022.9 0.0
05/09:30am 14.6 11.7 -0.9 34 6.6 NNW 4 9 2 5 1023.3 1022.6 0.0
05/09:00am 13.0 11.0 0.2 41 5.5 CALM 0 0 0 0 1023.1 1022.4 0.0
05/08:00am 8.0 6.0 0.2 58 3.2 CALM 0 0 0 0 1022.5 1021.8 0.0
05/07:30am 7.6 5.6 -0.4 57 3.2 CALM 0 0 0 0 1022.2 1021.5 0.0
05/07:00am 7.9 5.8 -0.9 54 3.5 CALM 0 0 0 0 1021.8 1021.1 0.0
05/06:30am 8.9 5.4 -1.7 47 4.2 ENE 7 7 4 4 1021.5 1020.8 0.0
05/05:30am 9.7 6.3 -0.6 48 4.2 ENE 7 7 4 4 1021.1 1020.3 0.0
05/05:00am 8.6 5.1 -1.5 49 4.0 E 7 9 4 5 1021.2 1020.5 0.0
05/04:30am 8.8 5.3 -1.6 48 4.1 ESE 7 9 4 5 1021.3 1020.6 0.0
05/04:00am 8.6 5.3 -1.2 50 3.9 E 6 7 3 4 1021.3 1020.6 0.0
05/03:30am 8.4 5.1 -0.2 54 3.5 NE 7 9 4 5 1021.2 1020.5 0.0
05/03:00am 9.7 6.3 -0.9 47 4.3 E 7 13 4 7 1021.3 1020.6 0.0
05/02:30am 9.7 5.1 -1.2 46 4.4 E 13 15 7 8 1021.4 1020.7 0.0
05/02:00am 10.9 5.9 -1.4 42 5.0 E 15 17 8 9 1021.7 1021.0 0.0
05/01:30am 10.8 5.8 -1.2 43 4.9 E 15 17 8 9 1021.7 1021.0 0.0
05/01:00am 10.0 6.2 -0.8 47 4.4 E 9 13 5 7 1021.9 1021.2 0.0
05/12:30am 11.2 7.7 -1.3 42 5.1 NE 7 11 4 6 1021.9 1021.2 0.0
05/12:00am 10.5 6.3 -0.7 46 4.6 E 11 13 6 7 1022.0 1021.3 0.0
 
Date/Time
CST
Temp
°C
App
Temp
°C
Dew
Point
Rel
Hum
%
Delta-T
°C
Wind Press
QNH
hPa
Press
MSL
hPa
Rain
since 9 am
mm
Dir
 
Spd
km/h
Gust
km/h
Spd
kts
Gust
kts
04/11:30pm 10.8 6.9 -1.2 43 4.9 E 9 11 5 6 1022.0 1021.3 0.0
04/11:00pm 11.9 7.7 -1.2 40 5.4 E 11 11 6 6 1022.0 1021.3 0.0
04/10:30pm 13.3 9.0 -1.7 35 6.2 E 11 13 6 7 1022.1 1021.4 0.0
04/10:00pm 14.8 10.2 -1.3 33 6.8 ENE 13 15 7 8 1022.2 1021.5 0.0
04/09:30pm 14.3 10.1 -1.1 34 6.5 ENE 11 13 6 7 1022.2 1021.5 0.0
04/09:00pm 14.0 9.7 -1.6 34 6.5 E 11 11 6 6 1022.1 1021.4 0.0
04/08:30pm 14.4 10.3 -2.7 30 7.0 ESE 9 11 5 6 1022.0 1021.3 0.0
04/08:00pm 14.7 10.3 -2.6 30 7.1 ESE 11 13 6 7 1021.8 1021.1 0.0
04/07:30pm 15.1 10.7 -2.6 29 7.3 SE 11 11 6 6 1021.7 1021.0 0.0
04/07:00pm 15.8 11.7 -2.8 27 7.7 SSE 9 11 5 6 1021.4 1020.7 0.0
04/05:30pm 20.3 15.1 -5.7 17 10.6 SE 13 19 7 10 1021.1 1020.3 0.0
04/05:00pm 20.5 14.9 -6.2 16 10.8 ESE 15 26 8 14 1020.9 1020.1 0.0
04/04:30pm 20.8 15.6 -6.5 15 11.0 ESE 13 20 7 11 1020.7 1020.0 0.0
04/04:00pm 21.1 16.2 -6.7 15 11.2 ESE 11 22 6 12 1020.5 1019.8 0.0
04/03:30pm 21.0 15.0 -6.5 15 11.1 SE 17 28 9 15 1020.5 1019.8 0.0
04/03:00pm 20.4 14.6 -5.0 17 10.5 E 17 24 9 13 1020.6 1019.9 0.0
04/02:30pm 20.4 14.1 -5.5 17 10.6 ESE 19 30 10 16 1021.0 1020.2 0.0
04/02:00pm 20.2 13.6 -6.5 16 10.7 ESE 20 28 11 15 1021.3 1020.6 0.0
04/01:30pm 19.7 13.3 -5.3 18 10.2 SE 20 26 11 14 1021.7 1021.0 0.0
04/01:00pm 19.8 14.0 -4.6 19 10.1 ESE 17 26 9 14 1022.3 1021.6 0.0
04/12:30pm 18.8 12.7 -4.2 20 9.5 ESE 19 30 10 16 1023.1 1022.4 0.0
04/12:00pm 17.9 12.1 -4.4 21 9.1 SE 17 26 9 14 1023.6 1022.9 0.0
04/11:30am 17.9 12.5 -4.4 21 9.1 ESE 15 22 8 12 1023.9 1023.2 0.0
04/11:00am 17.2 11.4 -4.2 23 8.7 E 17 20 9 11 1024.1 1023.5 0.0
04/10:30am 16.6 11.6 -4.6 23 8.5 E 13 19 7 10 1024.1 1023.5 0.0
04/10:00am 15.7 11.6 -3.1 27 7.7 E 9 13 5 7 1024.1 1023.5 0.0
04/09:30am 13.8 11.7 -0.9 36 6.2 CALM 0 0 0 0 1023.9 1023.2 0.0
04/09:00am 11.0 8.1 -1.3 42 5.0 E 4 7 2 4 1023.8 1023.1 0.0
04/08:30am 7.1 3.7 -1.7 53 3.4 E 6 7 3 4 1023.7 1023.0 0.0
04/08:00am 5.3 1.0 -1.8 60 2.7 ESE 11 15 6 8 1023.3 1022.6 0.0
04/07:30am 5.2 0.4 -2.3 58 2.8 E 13 15 7 8 1023.0 1022.3 0.0
04/07:00am 5.2 0.4 -2.3 58 2.8 SE 13 17 7 9 1022.8 1022.1 0.0
04/06:30am 4.7 0.7 -2.0 62 2.5 ESE 9 11 5 6 1022.4 1021.7 0.0
04/06:00am 6.1 1.4 -1.7 57 3.0 E 13 15 7 8 1022.1 1021.4 0.0
04/05:30am 7.2 2.4 -2.5 50 3.7 E 13 15 7 8 1022.1 1021.4 0.0
04/05:00am 8.6 3.0 -2.9 44 4.4 E 17 19 9 10 1022.2 1021.5 0.0
04/04:30am 5.8 1.4 -2.2 56 3.0 SE 11 13 6 7 1022.5 1021.8 0.0
04/04:00am 8.7 3.5 -2.8 44 4.4 E 15 19 8 10 1022.4 1021.7 0.0
04/03:30am 7.2 2.1 -2.2 51 3.6 ESE 15 17 8 9 1022.7 1022.0 0.0
04/03:00am 7.5 3.4 -2.8 48 3.9 SE 9 11 5 6 1022.8 1022.1 0.0
04/02:30am 8.5 4.2 -2.0 47 4.1 ESE 11 13 6 7 1022.9 1022.2 0.0
04/02:00am 9.1 4.7 -2.5 44 4.5 ENE 11 13 6 7 1023.0 1022.3 0.0
04/01:30am 7.6 3.6 -2.3 49 3.8 ENE 9 11 5 6 1023.1 1022.4 0.0
04/01:00am 7.3 2.1 -2.4 50 3.7 S 15 17 8 9 1023.2 1022.5 0.0
04/12:30am 7.9 3.9 -2.6 47 4.0 SSW 9 13 5 7 1023.2 1022.5 0.0
04/12:00am 9.6 6.3 -1.4 46 4.4 ENE 6 9 3 5 1023.2 1022.5 0.0
 
Date/Time
CST
Temp
°C
App
Temp
°C
Dew
Point
Rel
Hum
%
Delta-T
°C
Wind Press
QNH
hPa
Press
MSL
hPa
Rain
since 9 am
mm
Dir
 
Spd
km/h
Gust
km/h
Spd
kts
Gust
kts
03/11:30pm 13.8 8.9 -3.1 31 6.8 E 13 15 7 8 1023.4 1022.7 0.0
03/11:00pm 12.6 8.1 -3.3 33 6.3 ENE 11 13 6 7 1023.4 1022.7 0.0
03/10:30pm 11.8 6.5 -3.2 35 5.9 E 15 17 8 9 1023.6 1022.9 0.0
03/10:00pm 10.6 5.8 -2.6 39 5.2 E 13 17 7 9 1023.5 1022.8 0.0
03/09:30pm 11.7 6.8 -3.4 34 5.9 ESE 13 15 7 8 1023.5 1022.8 0.0
03/09:00pm 13.3 8.0 -4.0 30 6.8 E 15 17 8 9 1023.3 1022.6 0.0
03/08:30pm 12.8 8.3 -3.4 32 6.4 SE 11 13 6 7 1023.2 1022.5 0.0
03/08:00pm 14.1 9.6 -3.3 30 7.0 SE 11 13 6 7 1023.0 1022.3 0.0
03/07:30pm 14.9 9.9 -4.7 25 7.7 ESE 13 15 7 8 1022.7 1022.0 0.0
03/07:00pm 15.3 11.2 -3.4 27 7.6 SSE 9 11 5 6 1022.3 1021.6 0.0
03/06:30pm 16.4 11.8 -4.5 23 8.4 S 11 13 6 7 1021.9 1021.2 0.0
03/06:00pm 18.0 13.7 -4.6 21 9.2 S 9 13 5 7 1021.7 1021.0 0.0
03/05:30pm 19.2 14.1 -5.5 18 10.0 SSE 13 19 7 10 1021.7 1021.0 0.0
03/05:00pm 19.6 14.5 -5.5 18 10.2 SE 13 20 7 11 1021.6 1020.9 0.0
03/04:30pm 19.5 15.1 -6.3 17 10.3 S 9 17 5 9 1021.5 1020.8 0.0
03/04:00pm 19.7 15.8 -4.8 18 10.1 SSW 7 15 4 8 1021.8 1021.1 0.0
03/03:30pm 19.6 14.9 -5.0 18 10.1 SE 11 15 6 8 1022.0 1021.3 0.0
03/03:00pm 19.3 14.1 -5.8 18 10.1 S 13 20 7 11 1022.2 1021.5 0.0
03/02:30pm 19.5 15.7 -5.8 17 10.2 SSE 6 20 3 11 1022.4 1021.7 0.0
03/02:00pm 19.0 14.3 -4.6 20 9.7 ESE 11 19 6 10 1023.0 1022.3 0.0
03/01:30pm 18.8 14.6 -4.2 20 9.5 SE 9 15 5 8 1023.6 1022.9 0.0
03/01:00pm 18.5 14.4 -3.1 23 9.1 ESE 9 17 5 9 1024.2 1023.6 0.0
03/12:30pm 18.6 14.8 -3.8 21 9.3 S 7 13 4 7 1024.9 1024.2 0.0
03/12:00pm 17.8 13.6 -3.8 22 8.9 N 9 13 5 7 1025.3 1024.6 0.0
03/11:30am 17.5 13.3 -4.0 23 8.8 N 9 13 5 7 1025.7 1025.1 0.0
03/11:00am 16.4 12.3 -3.3 25 8.1 N 9 13 5 7 1026.0 1025.4 0.0
03/10:30am 16.1 11.6 -3.1 26 7.9 ENE 11 15 6 8 1026.2 1025.5 0.0
03/10:00am 14.8 10.4 -2.8 29 7.2 E 11 15 6 8 1026.2 1025.5 0.0
03/09:30am 13.3 9.2 -2.9 32 6.5 E 9 15 5 8 1026.0 1025.4 0.0
03/09:00am 11.6 7.6 -2.1 38 5.5 E 9 13 5 7 1025.9 1025.3 0.0
03/08:30am 9.7 5.4 -1.6 45 4.5 E 11 15 6 8 1025.8 1025.2 0.0
03/08:00am 7.3 2.3 -1.4 54 3.4 ESE 15 17 8 9 1025.4 1024.7 0.0
03/07:30am 6.2 1.6 -1.0 60 2.8 ESE 13 17 7 9 1025.3 1024.6 0.0
03/07:00am 6.2 1.6 -0.7 61 2.7 ESE 13 15 7 8 1025.1 1024.4 0.0
03/06:30am 6.5 2.0 -0.6 60 2.8 ESE 13 15 7 8 1024.9 1024.2 0.0
03/06:00am 7.3 3.1 -0.8 56 3.2 ESE 11 13 6 7 1024.8 1024.1 0.0
03/05:30am 7.6 4.2 -0.4 57 3.2 SSE 7 9 4 5 1024.8 1024.1 0.0
03/05:00am 9.3 6.1 -0.5 50 4.0 NNW 6 7 3 4 1024.8 1024.1 0.0
03/04:30am 9.9 6.8 0.3 51 4.0 E 6 7 3 4 1024.9 1024.2 0.0
03/04:00am 10.8 7.0 -0.6 45 4.7 ENE 9 11 5 6 1024.9 1024.2 0.0
03/03:30am 11.9 7.7 -0.9 41 5.3 NE 11 15 6 8 1025.0 1024.3 0.0
03/03:00am 11.3 7.6 -0.2 45 4.8 ENE 9 13 5 7 1025.0 1024.3 0.0
03/02:30am 8.8 5.1 -0.3 53 3.7 ESE 9 11 5 6 1025.3 1024.6 0.0
03/02:00am 12.1 7.6 -0.2 42 5.2 ENE 13 15 7 8 1025.5 1024.9 0.0
03/01:30am 11.1 6.6 -0.5 44 4.8 ENE 13 15 7 8 1025.5 1024.9 0.0
03/01:00am 8.6 5.4 -0.3 53 3.6 ESE 6 11 3 6 1025.5 1024.9 0.0
03/12:30am 10.7 6.5 -0.7 45 4.7 ESE 11 13 6 7 1025.8 1025.2 0.0
03/12:00am 12.1 7.1 -1.3 39 5.5 E 15 19 8 10 1025.8 1025.2 0.0
 
Date/Time
CST
Temp
°C
App
Temp
°C
Dew
Point
Rel
Hum
%
Delta-T
°C
Wind Press
QNH
hPa
Press
MSL
hPa
Rain
since 9 am
mm
Dir
 
Spd
km/h
Gust
km/h
Spd
kts
Gust
kts
02/11:30pm 11.5 6.9 -1.2 41 5.2 ESE 13 15 7 8 1025.9 1025.3 0.0
02/11:00pm 13.1 8.0 -1.7 36 6.1 E 15 17 8 9 1026.0 1025.4 0.0
02/10:30pm 13.4 8.3 -1.6 35 6.2 E 15 17 8 9 1025.9 1025.3 0.0
02/10:00pm 12.7 7.9 -2.4 35 6.1 E 13 15 7 8 1025.8 1025.2 0.0
02/09:30pm 13.6 8.8 -2.7 32 6.6 E 13 15 7 8 1025.7 1025.1 0.0
02/09:00pm 14.3 9.4 -3.0 30 7.0 E 13 15 7 8 1025.5 1024.9 0.0
02/08:30pm 13.8 9.1 -2.0 33 6.5 E 13 17 7 9 1025.3 1024.6 0.0
02/08:00pm 16.4 11.4 -4.2 24 8.3 ENE 13 15 7 8 1025.1 1024.4 0.0
02/07:30pm 15.8 11.3 -3.3 26 7.8 E 11 11 6 6 1024.8 1024.1 0.0
02/07:00pm 16.8 12.2 -4.2 23 8.5 ESE 11 11 6 6 1024.6 1023.9 0.0
02/06:30pm 17.8 13.6 -3.8 22 8.9 E 9 11 5 6 1024.5 1023.8 0.0
02/06:00pm 19.5 15.2 -4.9 19 10.0 ESE 9 11 5 6 1024.5 1023.8 0.0
02/05:30pm 20.4 16.0 -6.1 16 10.7 ESE 9 13 5 7 1024.5 1023.8 0.0

Other Formats:

Comma delimited format used in spreadsheet applications
http://www.bom.gov.au/fwo/IDD60801/IDD60801.94461.axf

JavaScript Object Notation format (JSON) in row-major order
http://www.bom.gov.au/fwo/IDD60801/IDD60801.94461.json